Ilioupolis, Greece
Current Conditions -  °F | °C
As of 5:20 PM on Tuesday 27 Jan 2015 (Local Time) from LGAV Reporting Station
Broken Clouds Broken Clouds  
Wind Chill: 52°   Ceiling: 7000
Heat Index: 52°   Visibility: 6mi
Dew Point: 41°   Wind: 9mph
Humidity: 67%   Direction: 180°S
Pressure: 29.8"   Gusts: NA
Location:  37.92°N, 23.75°E
Report Text: LGAV 271420Z 18008KT 9999 SCT025 BKN070 11/05 Q1009 NOSIG
Loading
Personal Weather Stations






























Interactive Weather Map New forecast layout! Learn more

10-Day Weather Forecast

Advertisements
Track Severe Weather on mobile